sensor_id;sensor_type;location;lat;lon;timestamp;pressure;altitude;pressure_sealevel;temperature;humidity
62632;BME280;48703;51.248;-0.546;2022-08-07T00:01:35;102053;;;15.85;80.72
62632;BME280;48703;51.248;-0.546;2022-08-07T00:04:37;102051;;;15.84;81.13
62632;BME280;48703;51.248;-0.546;2022-08-07T00:07:39;102050;;;15.84;81.86
62632;BME280;48703;51.248;-0.546;2022-08-07T00:10:41;102047;;;15.83;83.77
62632;BME280;48703;51.248;-0.546;2022-08-07T00:13:43;102045;;;15.80;86.36
62632;BME280;48703;51.248;-0.546;2022-08-07T00:16:44;102045;;;15.78;87.34
62632;BME280;48703;51.248;-0.546;2022-08-07T00:19:46;102044;;;15.79;86.11
62632;BME280;48703;51.248;-0.546;2022-08-07T00:22:48;102044;;;15.74;86.11
62632;BME280;48703;51.248;-0.546;2022-08-07T00:25:50;102042;;;15.69;85.83
62632;BME280;48703;51.248;-0.546;2022-08-07T00:28:52;102041;;;15.64;85.50
62632;BME280;48703;51.248;-0.546;2022-08-07T00:31:54;102041;;;15.56;85.09
62632;BME280;48703;51.248;-0.546;2022-08-07T00:34:56;102043;;;15.56;85.40
62632;BME280;48703;51.248;-0.546;2022-08-07T00:37:58;102041;;;15.49;84.70
62632;BME280;48703;51.248;-0.546;2022-08-07T00:41:00;102037;;;15.44;84.11
62632;BME280;48703;51.248;-0.546;2022-08-07T00:44:01;102036;;;15.35;83.03
62632;BME280;48703;51.248;-0.546;2022-08-07T00:47:04;102036;;;15.27;81.02
62632;BME280;48703;51.248;-0.546;2022-08-07T00:50:05;102036;;;15.22;80.00
62632;BME280;48703;51.248;-0.546;2022-08-07T00:53:07;102033;;;15.15;79.65
62632;BME280;48703;51.248;-0.546;2022-08-07T00:56:09;102027;;;15.06;79.81
62632;BME280;48703;51.248;-0.546;2022-08-07T00:59:11;102025;;;15.00;79.43
62632;BME280;48703;51.248;-0.546;2022-08-07T01:02:12;102028;;;14.89;80.55
62632;BME280;48703;51.248;-0.546;2022-08-07T01:05:14;102033;;;14.81;80.70
62632;BME280;48703;51.248;-0.546;2022-08-07T01:08:16;102032;;;14.79;80.12
62632;BME280;48703;51.248;-0.546;2022-08-07T01:11:18;102031;;;14.74;80.08
62632;BME280;48703;51.248;-0.546;2022-08-07T01:14:20;102031;;;14.67;80.66
62632;BME280;48703;51.248;-0.546;2022-08-07T01:17:22;102031;;;14.59;81.26
62632;BME280;48703;51.248;-0.546;2022-08-07T01:20:27;102027;;;14.52;81.56
62632;BME280;48703;51.248;-0.546;2022-08-07T01:23:26;102027;;;14.48;81.38
62632;BME280;48703;51.248;-0.546;2022-08-07T01:26:27;102027;;;14.47;82.29
62632;BME280;48703;51.248;-0.546;2022-08-07T01:29:29;102021;;;14.39;82.61
62632;BME280;48703;51.248;-0.546;2022-08-07T01:32:31;102017;;;14.32;82.62
62632;BME280;48703;51.248;-0.546;2022-08-07T01:35:33;102014;;;14.30;83.41
62632;BME280;48703;51.248;-0.546;2022-08-07T01:38:35;102013;;;14.28;83.00
62632;BME280;48703;51.248;-0.546;2022-08-07T01:41:37;102011;;;14.28;83.27
62632;BME280;48703;51.248;-0.546;2022-08-07T01:44:39;102012;;;14.23;83.20
62632;BME280;48703;51.248;-0.546;2022-08-07T01:47:40;102021;;;14.14;84.15
62632;BME280;48703;51.248;-0.546;2022-08-07T01:50:44;102031;;;14.12;83.74
62632;BME280;48703;51.248;-0.546;2022-08-07T01:53:45;102033;;;14.09;85.47
62632;BME280;48703;51.248;-0.546;2022-08-07T01:56:47;102034;;;14.05;86.74
62632;BME280;48703;51.248;-0.546;2022-08-07T01:59:49;102031;;;14.03;86.62
62632;BME280;48703;51.248;-0.546;2022-08-07T02:02:52;102035;;;13.96;86.59
62632;BME280;48703;51.248;-0.546;2022-08-07T02:05:53;102035;;;13.85;87.45
62632;BME280;48703;51.248;-0.546;2022-08-07T02:08:53;102037;;;13.87;86.36
62632;BME280;48703;51.248;-0.546;2022-08-07T02:11:55;102033;;;13.87;87.35
62632;BME280;48703;51.248;-0.546;2022-08-07T02:14:57;102033;;;13.89;86.80
62632;BME280;48703;51.248;-0.546;2022-08-07T02:17:59;102035;;;13.88;87.78
62632;BME280;48703;51.248;-0.546;2022-08-07T02:21:02;102035;;;13.75;89.56
62632;BME280;48703;51.248;-0.546;2022-08-07T02:24:03;102035;;;13.69;89.26
62632;BME280;48703;51.248;-0.546;2022-08-07T02:27:05;102036;;;13.67;88.75
62632;BME280;48703;51.248;-0.546;2022-08-07T02:30:07;102033;;;13.70;88.17
62632;BME280;48703;51.248;-0.546;2022-08-07T02:33:08;102026;;;13.69;88.48
62632;BME280;48703;51.248;-0.546;2022-08-07T02:36:10;102028;;;13.62;90.04
62632;BME280;48703;51.248;-0.546;2022-08-07T02:39:12;102028;;;13.50;91.46
62632;BME280;48703;51.248;-0.546;2022-08-07T02:42:14;102027;;;13.38;91.30
62632;BME280;48703;51.248;-0.546;2022-08-07T02:45:16;102026;;;13.42;90.03
62632;BME280;48703;51.248;-0.546;2022-08-07T02:48:18;102024;;;13.43;90.28
62632;BME280;48703;51.248;-0.546;2022-08-07T02:51:19;102022;;;13.34;91.30
62632;BME280;48703;51.248;-0.546;2022-08-07T02:54:22;102025;;;13.25;93.17
62632;BME280;48703;51.248;-0.546;2022-08-07T02:57:23;102028;;;13.20;91.97
62632;BME280;48703;51.248;-0.546;2022-08-07T03:00:25;102027;;;13.25;92.42
62632;BME280;48703;51.248;-0.546;2022-08-07T03:03:28;102027;;;13.25;92.44
62632;BME280;48703;51.248;-0.546;2022-08-07T03:06:29;102028;;;13.21;93.13
62632;BME280;48703;51.248;-0.546;2022-08-07T03:09:31;102026;;;13.10;93.98
62632;BME280;48703;51.248;-0.546;2022-08-07T03:12:33;102026;;;13.08;93.99
62632;BME280;48703;51.248;-0.546;2022-08-07T03:15:34;102030;;;13.03;95.73
62632;BME280;48703;51.248;-0.546;2022-08-07T03:18:36;102028;;;13.01;94.29
62632;BME280;48703;51.248;-0.546;2022-08-07T03:21:38;102027;;;13.05;93.66
62632;BME280;48703;51.248;-0.546;2022-08-07T03:24:40;102022;;;13.02;93.06
62632;BME280;48703;51.248;-0.546;2022-08-07T03:27:42;102020;;;12.98;92.65
62632;BME280;48703;51.248;-0.546;2022-08-07T03:30:44;102020;;;12.97;93.82
62632;BME280;48703;51.248;-0.546;2022-08-07T03:33:46;102018;;;12.96;93.84
62632;BME280;48703;51.248;-0.546;2022-08-07T03:36:48;102018;;;12.89;95.09
62632;BME280;48703;51.248;-0.546;2022-08-07T03:39:49;102021;;;12.80;96.61
62632;BME280;48703;51.248;-0.546;2022-08-07T03:42:51;102025;;;12.74;97.22
62632;BME280;48703;51.248;-0.546;2022-08-07T03:45:53;102035;;;12.70;96.83
62632;BME280;48703;51.248;-0.546;2022-08-07T03:48:55;102040;;;12.67;96.91
62632;BME280;48703;51.248;-0.546;2022-08-07T03:51:57;102040;;;12.67;96.08
62632;BME280;48703;51.248;-0.546;2022-08-07T03:54:59;102037;;;12.65;96.56
62632;BME280;48703;51.248;-0.546;2022-08-07T03:58:00;102034;;;12.60;96.85
62632;BME280;48703;51.248;-0.546;2022-08-07T04:01:03;102028;;;12.59;95.63
62632;BME280;48703;51.248;-0.546;2022-08-07T04:04:04;102024;;;12.55;96.13
62632;BME280;48703;51.248;-0.546;2022-08-07T04:07:06;102025;;;12.46;96.17
62632;BME280;48703;51.248;-0.546;2022-08-07T04:10:08;102023;;;12.42;97.10
62632;BME280;48703;51.248;-0.546;2022-08-07T04:13:10;102018;;;12.44;96.60
62632;BME280;48703;51.248;-0.546;2022-08-07T04:16:12;102019;;;12.41;97.40
62632;BME280;48703;51.248;-0.546;2022-08-07T04:19:14;102019;;;12.35;97.53
62632;BME280;48703;51.248;-0.546;2022-08-07T04:22:15;102021;;;12.35;97.38
62632;BME280;48703;51.248;-0.546;2022-08-07T04:25:17;102023;;;12.34;96.32
62632;BME280;48703;51.248;-0.546;2022-08-07T04:28:19;102024;;;12.25;97.39
62632;BME280;48703;51.248;-0.546;2022-08-07T04:31:22;102023;;;12.24;98.37
62632;BME280;48703;51.248;-0.546;2022-08-07T04:34:23;102027;;;12.13;99.04
62632;BME280;48703;51.248;-0.546;2022-08-07T04:37:25;102028;;;12.08;98.27
62632;BME280;48703;51.248;-0.546;2022-08-07T04:40:26;102028;;;12.08;97.45
62632;BME280;48703;51.248;-0.546;2022-08-07T04:43:29;102025;;;12.12;97.78
62632;BME280;48703;51.248;-0.546;2022-08-07T04:46:32;102024;;;12.17;97.83
62632;BME280;48703;51.248;-0.546;2022-08-07T04:49:35;102023;;;12.19;97.22
62632;BME280;48703;51.248;-0.546;2022-08-07T04:52:36;102023;;;12.18;98.01
62632;BME280;48703;51.248;-0.546;2022-08-07T04:55:40;102024;;;12.09;99.93
62632;BME280;48703;51.248;-0.546;2022-08-07T04:58:38;102026;;;11.99;100.00
62632;BME280;48703;51.248;-0.546;2022-08-07T05:01:41;102030;;;11.91;100.00
62632;BME280;48703;51.248;-0.546;2022-08-07T05:04:45;102032;;;11.88;100.00
62632;BME280;48703;51.248;-0.546;2022-08-07T05:07:46;102033;;;11.84;100.00
62632;BME280;48703;51.248;-0.546;2022-08-07T05:10:46;102040;;;11.83;100.00
62632;BME280;48703;51.248;-0.546;2022-08-07T05:13:50;102044;;;11.84;100.00
62632;BME280;48703;51.248;-0.546;2022-08-07T05:16:49;102040;;;11.92;100.00
62632;BME280;48703;51.248;-0.546;2022-08-07T05:19:51;102043;;;12.00;100.00
62632;BME280;48703;51.248;-0.546;2022-08-07T05:22:53;102049;;;11.95;100.00
62632;BME280;48703;51.248;-0.546;2022-08-07T05:25:54;102050;;;11.94;100.00
62632;BME280;48703;51.248;-0.546;2022-08-07T05:28:57;102050;;;11.95;100.00
62632;BME280;48703;51.248;-0.546;2022-08-07T05:31:58;102054;;;11.96;100.00
62632;BME280;48703;51.248;-0.546;2022-08-07T05:35:00;102058;;;11.99;100.00
62632;BME280;48703;51.248;-0.546;2022-08-07T05:38:03;102062;;;12.04;100.00
62632;BME280;48703;51.248;-0.546;2022-08-07T05:41:04;102063;;;12.09;100.00
62632;BME280;48703;51.248;-0.546;2022-08-07T05:44:06;102067;;;12.14;100.00
62632;BME280;48703;51.248;-0.546;2022-08-07T05:47:07;102072;;;12.21;100.00
62632;BME280;48703;51.248;-0.546;2022-08-07T05:50:09;102076;;;12.27;100.00
62632;BME280;48703;51.248;-0.546;2022-08-07T05:53:11;102073;;;12.35;100.00
62632;BME280;48703;51.248;-0.546;2022-08-07T05:56:14;102074;;;12.38;100.00
62632;BME280;48703;51.248;-0.546;2022-08-07T05:59:16;102077;;;12.38;100.00
62632;BME280;48703;51.248;-0.546;2022-08-07T06:02:17;102075;;;12.39;99.90
62632;BME280;48703;51.248;-0.546;2022-08-07T06:05:19;102071;;;12.44;99.88
62632;BME280;48703;51.248;-0.546;2022-08-07T06:08:21;102067;;;12.49;99.97
62632;BME280;48703;51.248;-0.546;2022-08-07T06:11:22;102067;;;12.55;99.97
62632;BME280;48703;51.248;-0.546;2022-08-07T06:14:24;102068;;;12.61;99.99
62632;BME280;48703;51.248;-0.546;2022-08-07T06:17:26;102069;;;12.67;100.00
62632;BME280;48703;51.248;-0.546;2022-08-07T06:20:28;102071;;;12.72;99.52
62632;BME280;48703;51.248;-0.546;2022-08-07T06:23:30;102070;;;12.76;99.28
62632;BME280;48703;51.248;-0.546;2022-08-07T06:26:32;102072;;;12.82;97.96
62632;BME280;48703;51.248;-0.546;2022-08-07T06:29:34;102072;;;12.87;96.75
62632;BME280;48703;51.248;-0.546;2022-08-07T06:32:35;102070;;;12.91;96.74
62632;BME280;48703;51.248;-0.546;2022-08-07T06:35:37;102073;;;12.94;97.65
62632;BME280;48703;51.248;-0.546;2022-08-07T06:38:40;102072;;;12.99;95.41
62632;BME280;48703;51.248;-0.546;2022-08-07T06:41:42;102075;;;13.04;93.60
62632;BME280;48703;51.248;-0.546;2022-08-07T06:44:43;102074;;;13.10;93.15
62632;BME280;48703;51.248;-0.546;2022-08-07T06:47:45;102073;;;13.16;93.45
62632;BME280;48703;51.248;-0.546;2022-08-07T06:50:47;102077;;;13.23;93.65
62632;BME280;48703;51.248;-0.546;2022-08-07T06:53:48;102074;;;13.27;93.11
62632;BME280;48703;51.248;-0.546;2022-08-07T06:56:51;102069;;;13.32;93.14
62632;BME280;48703;51.248;-0.546;2022-08-07T06:59:52;102072;;;13.38;92.56
62632;BME280;48703;51.248;-0.546;2022-08-07T07:02:54;102073;;;13.46;92.69
62632;BME280;48703;51.248;-0.546;2022-08-07T07:05:56;102076;;;13.53;92.91
62632;BME280;48703;51.248;-0.546;2022-08-07T07:09:14;102074;;;13.60;92.38
62632;BME280;48703;51.248;-0.546;2022-08-07T07:12:01;102071;;;13.68;92.92
62632;BME280;48703;51.248;-0.546;2022-08-07T07:15:04;102071;;;13.77;92.33
62632;BME280;48703;51.248;-0.546;2022-08-07T07:18:04;102078;;;13.83;92.40
62632;BME280;48703;51.248;-0.546;2022-08-07T07:21:07;102079;;;13.90;94.00
62632;BME280;48703;51.248;-0.546;2022-08-07T07:24:07;102080;;;13.97;93.85
62632;BME280;48703;51.248;-0.546;2022-08-07T07:27:09;102081;;;14.05;94.48
62632;BME280;48703;51.248;-0.546;2022-08-07T07:30:11;102078;;;14.14;93.80
62632;BME280;48703;51.248;-0.546;2022-08-07T07:33:13;102080;;;14.22;94.00
62632;BME280;48703;51.248;-0.546;2022-08-07T07:36:15;102081;;;14.31;94.35
62632;BME280;48703;51.248;-0.546;2022-08-07T07:39:16;102082;;;14.41;94.85
62632;BME280;48703;51.248;-0.546;2022-08-07T07:42:18;102082;;;14.51;95.31
62632;BME280;48703;51.248;-0.546;2022-08-07T07:45:21;102082;;;14.59;93.71
62632;BME280;48703;51.248;-0.546;2022-08-07T07:48:22;102083;;;14.65;94.42
62632;BME280;48703;51.248;-0.546;2022-08-07T07:51:24;102082;;;14.75;94.73
62632;BME280;48703;51.248;-0.546;2022-08-07T07:54:26;102080;;;14.84;95.24
62632;BME280;48703;51.248;-0.546;2022-08-07T07:57:28;102079;;;15.00;94.33
62632;BME280;48703;51.248;-0.546;2022-08-07T08:00:31;102083;;;15.05;93.09
62632;BME280;48703;51.248;-0.546;2022-08-07T08:03:32;102085;;;15.11;93.25
62632;BME280;48703;51.248;-0.546;2022-08-07T08:06:34;102081;;;15.20;94.01
62632;BME280;48703;51.248;-0.546;2022-08-07T08:09:36;102076;;;15.34;93.93
62632;BME280;48703;51.248;-0.546;2022-08-07T08:12:37;102075;;;15.41;93.24
62632;BME280;48703;51.248;-0.546;2022-08-07T08:15:39;102074;;;15.47;92.52
62632;BME280;48703;51.248;-0.546;2022-08-07T08:18:41;102071;;;15.54;92.41
62632;BME280;48703;51.248;-0.546;2022-08-07T08:21:44;102072;;;15.64;90.85
62632;BME280;48703;51.248;-0.546;2022-08-07T08:24:45;102075;;;15.70;90.63
62632;BME280;48703;51.248;-0.546;2022-08-07T08:27:47;102075;;;15.80;89.68
62632;BME280;48703;51.248;-0.546;2022-08-07T08:30:48;102073;;;15.88;89.32
62632;BME280;48703;51.248;-0.546;2022-08-07T08:33:50;102071;;;15.99;88.86
62632;BME280;48703;51.248;-0.546;2022-08-07T08:36:52;102072;;;16.09;89.24
62632;BME280;48703;51.248;-0.546;2022-08-07T08:39:54;102069;;;16.21;89.25
62632;BME280;48703;51.248;-0.546;2022-08-07T08:42:57;102065;;;16.32;85.55
62632;BME280;48703;51.248;-0.546;2022-08-07T08:46:00;102065;;;16.44;83.15
62632;BME280;48703;51.248;-0.546;2022-08-07T08:49:00;102062;;;16.56;82.28
62632;BME280;48703;51.248;-0.546;2022-08-07T08:52:03;102064;;;16.64;82.51
62632;BME280;48703;51.248;-0.546;2022-08-07T08:55:05;102060;;;16.79;81.41
62632;BME280;48703;51.248;-0.546;2022-08-07T08:58:05;102059;;;16.87;80.44
62632;BME280;48703;51.248;-0.546;2022-08-07T09:01:08;102061;;;16.93;80.53
62632;BME280;48703;51.248;-0.546;2022-08-07T09:04:10;102057;;;17.06;78.48
62632;BME280;48703;51.248;-0.546;2022-08-07T09:07:13;102052;;;17.13;78.06
62632;BME280;48703;51.248;-0.546;2022-08-07T09:10:15;102049;;;17.21;75.90
62632;BME280;48703;51.248;-0.546;2022-08-07T09:13:16;102046;;;17.34;73.68
62632;BME280;48703;51.248;-0.546;2022-08-07T09:16:18;102048;;;17.45;71.63
62632;BME280;48703;51.248;-0.546;2022-08-07T09:19:21;102045;;;17.52;71.90
62632;BME280;48703;51.248;-0.546;2022-08-07T09:22:24;102046;;;17.59;70.13
62632;BME280;48703;51.248;-0.546;2022-08-07T09:25:23;102042;;;17.67;68.74
62632;BME280;48703;51.248;-0.546;2022-08-07T09:28:28;102040;;;17.72;69.66
62632;BME280;48703;51.248;-0.546;2022-08-07T09:31:29;102042;;;17.82;70.88
62632;BME280;48703;51.248;-0.546;2022-08-07T09:34:28;102044;;;17.88;68.84
62632;BME280;48703;51.248;-0.546;2022-08-07T09:37:32;102042;;;18.02;66.21
62632;BME280;48703;51.248;-0.546;2022-08-07T09:40:34;102041;;;18.14;67.31
62632;BME280;48703;51.248;-0.546;2022-08-07T09:43:36;102035;;;18.22;65.14
62632;BME280;48703;51.248;-0.546;2022-08-07T09:46:37;102030;;;18.31;63.84
62632;BME280;48703;51.248;-0.546;2022-08-07T09:49:40;102028;;;18.40;61.70
62632;BME280;48703;51.248;-0.546;2022-08-07T09:52:39;102020;;;18.50;57.11
62632;BME280;48703;51.248;-0.546;2022-08-07T09:55:46;102015;;;18.57;57.51
62632;BME280;48703;51.248;-0.546;2022-08-07T09:58:53;102012;;;18.63;56.11
62632;BME280;48703;51.248;-0.546;2022-08-07T10:01:49;102011;;;18.76;59.62
62632;BME280;48703;51.248;-0.546;2022-08-07T10:04:51;102008;;;18.81;60.50
62632;BME280;48703;51.248;-0.546;2022-08-07T10:07:54;102006;;;18.86;59.54
62632;BME280;48703;51.248;-0.546;2022-08-07T10:10:51;102003;;;18.97;57.21
62632;BME280;48703;51.248;-0.546;2022-08-07T10:13:54;101995;;;19.12;57.24
62632;BME280;48703;51.248;-0.546;2022-08-07T10:17:01;101992;;;19.22;55.72
62632;BME280;48703;51.248;-0.546;2022-08-07T10:20:00;101990;;;19.27;56.14
62632;BME280;48703;51.248;-0.546;2022-08-07T10:23:05;101988;;;19.39;54.35
62632;BME280;48703;51.248;-0.546;2022-08-07T10:26:00;101987;;;19.48;53.61
62632;BME280;48703;51.248;-0.546;2022-08-07T10:29:14;101979;;;19.59;52.92
62632;BME280;48703;51.248;-0.546;2022-08-07T10:32:09;101976;;;19.63;54.47
62632;BME280;48703;51.248;-0.546;2022-08-07T10:35:06;101976;;;19.69;53.90
62632;BME280;48703;51.248;-0.546;2022-08-07T10:38:10;101976;;;19.78;50.64
62632;BME280;48703;51.248;-0.546;2022-08-07T10:41:11;101976;;;19.89;51.67
62632;BME280;48703;51.248;-0.546;2022-08-07T10:44:11;101971;;;19.94;52.28
62632;BME280;48703;51.248;-0.546;2022-08-07T10:47:17;101975;;;20.04;49.84
62632;BME280;48703;51.248;-0.546;2022-08-07T10:50:16;101976;;;20.18;50.18
62632;BME280;48703;51.248;-0.546;2022-08-07T10:53:17;101973;;;20.27;50.38
62632;BME280;48703;51.248;-0.546;2022-08-07T10:56:22;101969;;;20.35;50.97
62632;BME280;48703;51.248;-0.546;2022-08-07T10:59:24;101964;;;20.45;50.15
62632;BME280;48703;51.248;-0.546;2022-08-07T11:02:22;101962;;;20.46;49.77
62632;BME280;48703;51.248;-0.546;2022-08-07T11:05:27;101965;;;20.52;50.32
62632;BME280;48703;51.248;-0.546;2022-08-07T11:08:28;101962;;;20.54;50.71
62632;BME280;48703;51.248;-0.546;2022-08-07T11:11:28;101958;;;20.57;49.98
62632;BME280;48703;51.248;-0.546;2022-08-07T11:14:31;101952;;;20.62;50.83
62632;BME280;48703;51.248;-0.546;2022-08-07T11:17:35;101950;;;20.67;49.72
62632;BME280;48703;51.248;-0.546;2022-08-07T11:20:35;101943;;;20.77;49.34
62632;BME280;48703;51.248;-0.546;2022-08-07T11:23:36;101941;;;20.84;49.42
62632;BME280;48703;51.248;-0.546;2022-08-07T11:26:38;101937;;;20.88;49.54
62632;BME280;48703;51.248;-0.546;2022-08-07T11:29:39;101930;;;20.97;48.97
62632;BME280;48703;51.248;-0.546;2022-08-07T11:32:42;101922;;;20.96;49.79
62632;BME280;48703;51.248;-0.546;2022-08-07T11:35:44;101919;;;21.11;48.64
62632;BME280;48703;51.248;-0.546;2022-08-07T11:38:46;101921;;;21.30;48.59
62632;BME280;48703;51.248;-0.546;2022-08-07T11:41:48;101920;;;21.34;48.15
62632;BME280;48703;51.248;-0.546;2022-08-07T11:44:50;101915;;;21.32;48.72
62632;BME280;48703;51.248;-0.546;2022-08-07T11:47:53;101913;;;21.31;48.39
62632;BME280;48703;51.248;-0.546;2022-08-07T11:50:55;101911;;;21.35;49.08
62632;BME280;48703;51.248;-0.546;2022-08-07T11:53:56;101905;;;21.37;48.25
62632;BME280;48703;51.248;-0.546;2022-08-07T11:56:59;101901;;;21.39;49.26
62632;BME280;48703;51.248;-0.546;2022-08-07T12:00:03;101901;;;21.47;48.02
62632;BME280;48703;51.248;-0.546;2022-08-07T12:03:14;101898;;;21.57;47.27
62632;BME280;48703;51.248;-0.546;2022-08-07T12:06:09;101900;;;21.68;47.26
62632;BME280;48703;51.248;-0.546;2022-08-07T12:09:04;101894;;;21.69;48.31
62632;BME280;48703;51.248;-0.546;2022-08-07T12:12:05;101892;;;21.75;48.36
62632;BME280;48703;51.248;-0.546;2022-08-07T12:15:09;101893;;;21.77;48.28
62632;BME280;48703;51.248;-0.546;2022-08-07T12:18:11;101892;;;21.82;48.20
62632;BME280;48703;51.248;-0.546;2022-08-07T12:21:13;101890;;;21.83;47.56
62632;BME280;48703;51.248;-0.546;2022-08-07T12:24:13;101890;;;21.88;48.04
62632;BME280;48703;51.248;-0.546;2022-08-07T12:27:14;101884;;;21.93;48.96
62632;BME280;48703;51.248;-0.546;2022-08-07T12:30:15;101887;;;22.04;48.66
62632;BME280;48703;51.248;-0.546;2022-08-07T12:33:18;101880;;;22.06;48.46
62632;BME280;48703;51.248;-0.546;2022-08-07T12:36:19;101876;;;22.08;48.52
62632;BME280;48703;51.248;-0.546;2022-08-07T12:39:21;101870;;;22.16;47.04
62632;BME280;48703;51.248;-0.546;2022-08-07T12:42:24;101869;;;22.23;47.21
62632;BME280;48703;51.248;-0.546;2022-08-07T12:45:26;101872;;;22.34;46.98
62632;BME280;48703;51.248;-0.546;2022-08-07T12:48:28;101870;;;22.43;47.44
62632;BME280;48703;51.248;-0.546;2022-08-07T12:51:31;101867;;;22.43;47.56
62632;BME280;48703;51.248;-0.546;2022-08-07T12:54:31;101865;;;22.44;46.53
62632;BME280;48703;51.248;-0.546;2022-08-07T12:57:33;101863;;;22.52;46.15
62632;BME280;48703;51.248;-0.546;2022-08-07T13:00:37;101859;;;22.55;46.56
62632;BME280;48703;51.248;-0.546;2022-08-07T13:03:46;101858;;;22.63;46.53
62632;BME280;48703;51.248;-0.546;2022-08-07T13:06:43;101854;;;22.69;46.86
62632;BME280;48703;51.248;-0.546;2022-08-07T13:09:45;101850;;;22.71;45.97
62632;BME280;48703;51.248;-0.546;2022-08-07T13:12:55;101854;;;22.79;45.83
62632;BME280;48703;51.248;-0.546;2022-08-07T13:15:46;101855;;;22.85;45.03
62632;BME280;48703;51.248;-0.546;2022-08-07T13:18:48;101851;;;22.86;46.28
62632;BME280;48703;51.248;-0.546;2022-08-07T13:21:49;101850;;;22.89;46.69
62632;BME280;48703;51.248;-0.546;2022-08-07T13:24:50;101848;;;22.92;46.22
62632;BME280;48703;51.248;-0.546;2022-08-07T13:27:54;101848;;;23.00;46.05
62632;BME280;48703;51.248;-0.546;2022-08-07T13:30:54;101846;;;23.06;45.60
62632;BME280;48703;51.248;-0.546;2022-08-07T13:33:56;101842;;;23.09;45.32
62632;BME280;48703;51.248;-0.546;2022-08-07T13:36:57;101838;;;23.14;44.86
62632;BME280;48703;51.248;-0.546;2022-08-07T13:40:04;101830;;;23.19;44.52
62632;BME280;48703;51.248;-0.546;2022-08-07T13:43:01;101829;;;23.27;42.86
62632;BME280;48703;51.248;-0.546;2022-08-07T13:46:02;101831;;;23.46;42.25
62632;BME280;48703;51.248;-0.546;2022-08-07T13:49:04;101827;;;23.52;42.09
62632;BME280;48703;51.248;-0.546;2022-08-07T13:52:06;101827;;;23.61;42.65
62632;BME280;48703;51.248;-0.546;2022-08-07T13:55:09;101829;;;23.72;41.76
62632;BME280;48703;51.248;-0.546;2022-08-07T13:58:10;101820;;;23.76;40.85
62632;BME280;48703;51.248;-0.546;2022-08-07T14:01:12;101814;;;23.77;42.08
62632;BME280;48703;51.248;-0.546;2022-08-07T14:04:14;101816;;;23.84;42.51
62632;BME280;48703;51.248;-0.546;2022-08-07T14:07:17;101812;;;23.94;41.87
62632;BME280;48703;51.248;-0.546;2022-08-07T14:10:17;101803;;;23.98;42.30
62632;BME280;48703;51.248;-0.546;2022-08-07T14:13:19;101801;;;24.03;41.77
62632;BME280;48703;51.248;-0.546;2022-08-07T14:16:23;101799;;;24.08;41.85
62632;BME280;48703;51.248;-0.546;2022-08-07T14:19:28;101795;;;24.16;41.11
62632;BME280;48703;51.248;-0.546;2022-08-07T14:22:25;101792;;;24.21;41.65
62632;BME280;48703;51.248;-0.546;2022-08-07T14:25:27;101787;;;24.30;41.09
62632;BME280;48703;51.248;-0.546;2022-08-07T14:28:28;101778;;;24.38;41.43
62632;BME280;48703;51.248;-0.546;2022-08-07T14:31:30;101778;;;24.45;41.40
62632;BME280;48703;51.248;-0.546;2022-08-07T14:34:32;101776;;;24.55;41.61
62632;BME280;48703;51.248;-0.546;2022-08-07T14:37:34;101777;;;24.67;41.26
62632;BME280;48703;51.248;-0.546;2022-08-07T14:40:36;101775;;;24.77;40.81
62632;BME280;48703;51.248;-0.546;2022-08-07T14:43:38;101776;;;24.90;40.36
62632;BME280;48703;51.248;-0.546;2022-08-07T14:46:39;101778;;;25.04;40.45
62632;BME280;48703;51.248;-0.546;2022-08-07T14:49:41;101780;;;25.17;39.97
62632;BME280;48703;51.248;-0.546;2022-08-07T14:52:43;101778;;;25.27;40.84
62632;BME280;48703;51.248;-0.546;2022-08-07T14:55:45;101780;;;25.39;39.85
62632;BME280;48703;51.248;-0.546;2022-08-07T14:58:48;101770;;;25.46;39.87
62632;BME280;48703;51.248;-0.546;2022-08-07T15:01:49;101766;;;25.49;39.69
62632;BME280;48703;51.248;-0.546;2022-08-07T15:04:50;101765;;;25.57;40.43
62632;BME280;48703;51.248;-0.546;2022-08-07T15:07:52;101765;;;25.72;39.64
62632;BME280;48703;51.248;-0.546;2022-08-07T15:10:54;101761;;;25.86;39.29
62632;BME280;48703;51.248;-0.546;2022-08-07T15:13:58;101763;;;25.97;38.31
62632;BME280;48703;51.248;-0.546;2022-08-07T15:16:58;101758;;;26.06;38.75
62632;BME280;48703;51.248;-0.546;2022-08-07T15:20:02;101755;;;26.12;38.05
62632;BME280;48703;51.248;-0.546;2022-08-07T15:23:02;101746;;;26.15;37.32
62632;BME280;48703;51.248;-0.546;2022-08-07T15:26:03;101749;;;26.25;37.84
62632;BME280;48703;51.248;-0.546;2022-08-07T15:29:05;101749;;;26.39;37.31
62632;BME280;48703;51.248;-0.546;2022-08-07T15:32:07;101747;;;26.45;37.82
62632;BME280;48703;51.248;-0.546;2022-08-07T15:35:13;101745;;;26.54;37.25
62632;BME280;48703;51.248;-0.546;2022-08-07T15:38:11;101739;;;26.59;37.38
62632;BME280;48703;51.248;-0.546;2022-08-07T15:41:15;101738;;;26.67;36.64
62632;BME280;48703;51.248;-0.546;2022-08-07T15:44:16;101733;;;26.72;36.19
62632;BME280;48703;51.248;-0.546;2022-08-07T15:47:16;101727;;;26.79;36.70
62632;BME280;48703;51.248;-0.546;2022-08-07T15:50:18;101724;;;26.91;37.36
62632;BME280;48703;51.248;-0.546;2022-08-07T15:53:24;101719;;;27.04;36.56
62632;BME280;48703;51.248;-0.546;2022-08-07T15:56:23;101716;;;27.16;36.75
62632;BME280;48703;51.248;-0.546;2022-08-07T15:59:24;101715;;;27.24;36.28
62632;BME280;48703;51.248;-0.546;2022-08-07T16:02:26;101716;;;27.26;36.29
62632;BME280;48703;51.248;-0.546;2022-08-07T16:05:28;101713;;;27.23;36.29
62632;BME280;48703;51.248;-0.546;2022-08-07T16:08:29;101713;;;27.29;37.19
62632;BME280;48703;51.248;-0.546;2022-08-07T16:11:36;101715;;;27.40;35.30
62632;BME280;48703;51.248;-0.546;2022-08-07T16:14:39;101714;;;27.39;35.48